Flugplatz Halle-Oppin

Für EDAQ sind keine METAR/TAF Berichte vorhanden.
Es werden die Flugwettermeldungen vom Flugplatz Leipzig Halle in 19 km Entfernung angezeigt.

Bericht für EDDP

vom 19.02. um 07:20 UTC

Wind 8 kt aus 210°

Sichtweite 10 km oder mehr

gute Sicht, keine Wolken < 5000 ft, keine CB, keine Wettererscheinungen (CAVOK)

Temperatur 5.0°C

Taupunkt 0.0°C

Luftfeuchtigkeit 70%

Luftdruck 1016 hPa

keine wesentliche Wetteränderung innerhalb den nächsten 2 Stunden zu erwarten

EDDP 190720Z 21008KT CAVOK 05/M00 Q1016 NOSIG

Prognose für EDDP

vom 19.02. um 05:00 UTC

Zwischen 06:00 UTC und 09:00 UTC

Wind 11 kt aus 220°

Sichtweite 10 km oder mehr

aufgelockert bewölkt in 4000 ft


Zwischen 09:00 und 11:00 UTC übergehend zu

Wind 15 kt aus 240° in Böen 25 kt

Sichtweite 10 km oder mehr

aufgelockert bewölkt in 4000 ft


Zwischen 14:00 und 16:00 UTC übergehend zu

Wind 10 kt aus 240°

Sichtweite 10 km oder mehr

aufgelockert bewölkt in 4000 ft

TAF COR EDDP 190500Z 1906/2006 22011KT 9999 SCT040 BECMG 1909/1911 24015G25KT BECMG 1914/1916 24010KT
Impressum